Time;durP1;ratioP1;P1;durP2;ratioP2;P2;SDS_P1;SDS_P2;PMS_P1;PMS_P2;Temp;Humidity;BMP_temperature;BMP_pressure;BME280_temperature;BME280_humidity;BME280_pressure;Samples;Min_cycle;Max_cycle;Signal;HPM_P1;HPM_P2
2023/03/11 00:00:12;;;;;;;4.10;2.90;;;5.90;99.90;;;4.87;100.00;100226.59;4150656;28;20030;-75
2023/03/11 00:02:13;;;;;;;4.97;2.78;;;5.90;99.90;;;4.87;100.00;100213.53;4135319;28;20038;-75
2023/03/11 00:04:14;;;;;;;3.25;2.10;;;5.80;99.90;;;4.85;100.00;100191.94;4152039;28;20029;-75
2023/03/11 00:06:14;;;;;;;3.10;2.47;;;5.90;99.90;;;4.86;100.00;100198.84;4151856;28;20054;-75
2023/03/11 00:08:19;;;;;;;2.50;1.88;;;5.80;99.90;;;4.86;100.00;100205.84;4153623;28;20026;-75
2023/03/11 00:10:34;;;;;;;3.50;2.42;;;5.80;99.90;;;4.84;100.00;100212.97;4153741;28;20030;-75
2023/03/11 00:12:34;;;;;;;3.97;1.92;;;5.90;99.90;;;4.86;100.00;100198.00;4154867;28;20030;-75
2023/03/11 00:14:35;;;;;;;2.58;2.15;;;5.90;99.90;;;4.93;100.00;100204.34;4153595;28;20117;-75
2023/03/11 00:16:36;;;;;;;2.70;2.20;;;5.80;99.90;;;4.91;100.00;100206.25;4154755;28;20040;-75
2023/03/11 00:18:37;;;;;;;3.78;2.20;;;5.80;99.90;;;4.86;100.00;100196.22;4154786;28;20555;-75
2023/03/11 00:20:42;;;;;;;3.10;2.20;;;5.90;99.90;;;4.87;100.00;100190.03;4154827;28;20061;-75
2023/03/11 00:22:43;;;;;;;3.05;2.08;;;5.80;99.90;;;4.90;100.00;100204.59;4153680;28;20026;-75
2023/03/11 00:24:44;;;;;;;4.93;1.98;;;5.90;99.90;;;4.85;100.00;100207.63;4154815;28;20032;-75
2023/03/11 00:26:44;;;;;;;2.22;1.73;;;5.90;99.90;;;4.93;100.00;100235.69;4153564;28;20034;-75
2023/03/11 00:28:47;;;;;;;2.75;1.58;;;5.90;99.90;;;4.99;100.00;100235.16;4144210;28;20088;-75
2023/03/11 00:30:48;;;;;;;2.47;1.50;;;5.90;99.90;;;4.98;100.00;100242.22;4165860;28;20060;-75
2023/03/11 00:32:55;;;;;;;1.92;1.40;;;5.90;99.90;;;4.93;100.00;100210.41;4153048;28;20029;-75
2023/03/11 00:34:56;;;;;;;1.50;1.25;;;5.90;99.90;;;4.88;100.00;100168.16;4152350;28;20084;-75
2023/03/11 00:36:57;;;;;;;2.45;1.25;;;5.90;99.90;;;4.94;100.00;100161.56;4153402;28;20030;-75
2023/03/11 00:39:00;;;;;;;1.83;1.40;;;5.90;99.90;;;4.96;100.00;100173.53;4124270;28;20070;-75
2023/03/11 00:41:01;;;;;;;2.13;1.67;;;5.90;99.90;;;4.83;100.00;100198.28;4156756;28;20084;-75
2023/03/11 00:43:03;;;;;;;2.05;1.48;;;5.90;99.90;;;4.79;100.00;100213.38;4154495;28;20026;-75
2023/03/11 00:45:04;;;;;;;2.40;1.50;;;5.80;99.90;;;4.83;100.00;100232.25;4154552;28;20034;-75
2023/03/11 00:47:06;;;;;;;4.63;2.42;;;5.80;99.90;;;4.89;100.00;100216.03;4153300;28;20033;-75
2023/03/11 00:49:07;;;;;;;1.98;1.75;;;5.80;99.90;;;4.94;100.00;100191.16;4154618;28;20022;-75
2023/03/11 00:51:14;;;;;;;3.13;2.20;;;5.90;99.90;;;5.11;100.00;100171.38;4153313;28;20022;-75
2023/03/11 00:53:14;;;;;;;2.20;1.77;;;5.80;99.90;;;4.93;100.00;100181.66;4136872;28;20133;-75
2023/03/11 00:55:26;;;;;;;2.35;1.90;;;5.80;99.90;;;5.08;100.00;100242.22;4150104;28;20022;-75
2023/03/11 00:57:28;;;;;;;4.07;1.95;;;5.90;99.90;;;4.98;100.00;100259.66;4147073;28;20061;-75
2023/03/11 00:59:28;;;;;;;2.35;2.00;;;5.80;99.90;;;4.77;100.00;100251.88;4153025;28;20108;-75
2023/03/11 01:01:29;;;;;;;2.45;1.75;;;5.80;99.90;;;4.74;100.00;100240.88;4153081;28;20029;-75
2023/03/11 01:03:30;;;;;;;3.85;2.10;;;5.70;99.90;;;4.77;100.00;100240.59;4154196;28;20018;-75
2023/03/11 01:05:33;;;;;;;2.72;1.98;;;5.70;99.90;;;4.76;100.00;100267.69;4153146;28;20026;-75
2023/03/11 01:07:34;;;;;;;3.30;2.70;;;5.80;99.90;;;4.80;100.00;100282.16;4152888;28;20026;-75
2023/03/11 01:09:35;;;;;;;3.75;1.92;;;5.80;99.90;;;4.83;100.00;100287.13;4153095;28;20033;-75
2023/03/11 01:11:36;;;;;;;2.72;1.63;;;5.80;99.90;;;4.95;100.00;100250.31;4169182;28;20029;-75
2023/03/11 01:13:39;;;;;;;1.98;1.48;;;5.80;99.90;;;4.96;100.00;100240.66;4152463;28;20100;-75
2023/03/11 01:15:40;;;;;;;2.53;1.20;;;5.80;99.90;;;4.85;100.00;100254.66;4154080;28;20041;-75
2023/03/11 01:17:41;;;;;;;2.67;1.45;;;5.80;99.90;;;4.87;100.00;100262.34;4151561;28;20049;-75
2023/03/11 01:19:43;;;;;;;2.10;1.30;;;5.80;99.90;;;4.88;100.00;100246.56;4168764;28;20034;-75
2023/03/11 01:21:44;;;;;;;1.45;1.30;;;5.80;99.90;;;4.86;100.00;100229.38;4152856;28;20037;-75
2023/03/11 01:23:45;;;;;;;3.42;1.50;;;5.90;99.90;;;4.88;100.00;100246.56;4152765;28;20034;-75
2023/03/11 01:25:46;;;;;;;1.67;1.10;;;5.90;99.90;;;4.92;100.00;100231.44;4152588;28;20108;-75
2023/03/11 01:27:47;;;;;;;1.50;1.30;;;5.90;99.90;;;4.94;100.00;100226.91;4140070;28;20054;-75
2023/03/11 01:29:47;;;;;;;1.70;1.25;;;5.90;99.90;;;4.98;100.00;100221.31;4154049;28;20026;-75
2023/03/11 01:31:48;;;;;;;1.83;1.45;;;6.00;99.90;;;5.06;100.00;100230.25;4152498;28;20022;-75
2023/03/11 01:33:49;;;;;;;2.30;1.40;;;6.00;99.90;;;5.03;100.00;100218.28;4153774;28;20045;-75
2023/03/11 01:35:50;;;;;;;2.03;1.35;;;6.00;99.90;;;5.01;100.00;100225.44;4152399;28;20507;-75
2023/03/11 01:37:52;;;;;;;2.50;1.50;;;6.00;99.90;;;5.02;100.00;100230.50;4153806;28;20030;-75
2023/03/11 01:39:53;;;;;;;1.75;1.27;;;6.00;99.90;;;5.03;100.00;100226.94;4152667;28;20084;-75
2023/03/11 01:41:55;;;;;;;2.33;1.60;;;6.00;99.90;;;5.05;100.00;100223.38;4152633;28;20517;-75
2023/03/11 01:43:55;;;;;;;2.08;1.67;;;6.00;99.90;;;5.02;100.00;100212.22;4151993;28;20105;-75
2023/03/11 01:45:56;;;;;;;1.95;1.55;;;6.00;99.90;;;5.02;100.00;100211.38;4153532;28;20029;-75
2023/03/11 01:47:57;;;;;;;1.88;1.30;;;6.00;99.90;;;4.96;100.00;100204.06;4145653;28;20029;-75
2023/03/11 01:49:59;;;;;;;2.28;1.17;;;6.00;99.90;;;4.92;100.00;100193.09;4152314;28;20037;-75
2023/03/11 01:52:06;;;;;;;4.05;1.20;;;6.00;99.90;;;4.99;100.00;100204.63;4153363;28;20038;-75
2023/03/11 01:54:20;;;;;;;3.10;1.30;;;6.00;99.90;;;4.96;100.00;100193.63;4168528;28;20033;-75
2023/03/11 01:56:22;;;;;;;2.45;1.80;;;6.00;99.90;;;4.94;100.00;100201.59;4152259;28;20107;-75
2023/03/11 01:58:29;;;;;;;1.95;1.20;;;6.00;99.90;;;4.97;100.00;100217.03;4151801;28;20065;-75
2023/03/11 02:00:30;;;;;;;2.05;1.33;;;6.00;99.90;;;4.96;100.00;100215.34;4149728;28;20041;-75
2023/03/11 02:02:56;;;;;;;1.50;1.15;;;6.00;99.90;;;4.97;100.00;100203.13;4135973;28;20461;-75
2023/03/11 02:05:01;;;;;;;1.90;1.27;;;6.00;99.90;;;4.97;100.00;100184.81;4153208;28;20022;-75
2023/03/11 02:07:03;;;;;;;2.35;1.58;;;5.90;99.90;;;4.93;100.00;100173.81;4149017;28;20024;-75
2023/03/11 02:09:04;;;;;;;1.98;1.23;;;5.90;99.90;;;4.94;100.00;100185.94;4151886;28;20414;-75
2023/03/11 02:11:09;;;;;;;1.75;1.30;;;5.90;99.90;;;4.86;100.00;100188.38;4153178;28;20029;-75
2023/03/11 02:13:10;;;;;;;1.60;1.33;;;5.90;99.90;;;4.94;100.00;100196.38;4152623;28;20046;-75
2023/03/11 02:15:12;;;;;;;1.60;1.23;;;5.90;99.90;;;4.93;100.00;100188.66;4152094;28;20034;-75
2023/03/11 02:17:13;;;;;;;2.30;2.00;;;5.90;99.90;;;4.89;100.00;100176.84;4153141;28;20021;-75
2023/03/11 02:19:37;;;;;;;1.80;1.50;;;5.90;99.90;;;4.88;100.00;100183.00;4152127;28;20026;-75
2023/03/11 02:21:39;;;;;;;2.63;1.52;;;5.90;99.90;;;4.81;100.00;100185.31;4151971;28;20029;-75
2023/03/11 02:24:30;;;;;;;2.08;1.50;;;5.80;99.90;;;4.80;100.00;100188.09;4151692;28;20064;-75
2023/03/11 02:26:57;;;;;;;2.03;1.30;;;5.80;99.90;;;4.81;100.00;100181.88;4151139;28;20061;-75
2023/03/11 02:28:59;;;;;;;2.97;1.65;;;5.80;99.90;;;4.80;100.00;100177.63;4146364;28;20481;-75
2023/03/11 02:31:01;;;;;;;1.55;1.40;;;5.80;99.90;;;4.84;100.00;100179.00;4150881;28;20405;-75
2023/03/11 02:33:02;;;;;;;2.60;1.60;;;5.80;99.90;;;4.80;100.00;100177.63;4122686;28;20018;-75
2023/03/11 02:35:05;;;;;;;2.15;1.70;;;5.80;99.90;;;4.84;100.00;100186.84;4142283;28;20109;-75
2023/03/11 02:37:09;;;;;;;1.95;1.42;;;5.80;99.90;;;4.85;100.00;100188.50;4135129;28;20014;-76
2023/03/11 02:39:10;;;;;;;;;;;5.80;99.90;;;4.80;100.00;100190.69;4151797;28;20065;-76
2023/03/11 02:41:11;;;;;;;1.67;1.20;;;5.80;99.90;;;4.80;100.00;100188.09;4140373;28;20284;-75
2023/03/11 02:43:16;;;;;;;1.92;1.48;;;5.80;99.90;;;4.80;100.00;100191.53;4152388;28;20116;-75
2023/03/11 02:45:23;;;;;;;1.77;1.40;;;5.80;99.90;;;4.81;100.00;100189.72;4151522;28;20094;-75
2023/03/11 02:47:24;;;;;;;1.60;1.17;;;5.80;99.90;;;4.84;100.00;100189.44;4144582;28;20034;-75
2023/03/11 02:49:25;;;;;;;2.15;1.45;;;5.80;99.90;;;4.88;100.00;100180.41;4152731;28;20032;-75
2023/03/11 02:51:26;;;;;;;1.50;1.30;;;5.80;99.90;;;4.89;100.00;100187.28;4151482;28;20489;-75
2023/03/11 02:53:30;;;;;;;2.20;1.48;;;5.80;99.90;;;4.83;100.00;100177.38;4152570;28;20025;-75
2023/03/11 02:55:32;;;;;;;1.98;1.67;;;5.80;99.90;;;4.85;100.00;100176.28;4167469;28;20128;-75
2023/03/11 02:57:33;;;;;;;1.75;1.33;;;5.90;99.90;;;4.87;100.00;100181.34;4151087;28;20089;-76
2023/03/11 02:59:34;;;;;;;1.70;1.20;;;5.90;99.90;;;4.86;100.00;100184.94;4152441;28;20033;-75
2023/03/11 03:01:35;;;;;;;2.15;1.50;;;5.90;99.90;;;4.84;100.00;100179.00;4151306;28;20036;-75
2023/03/11 03:03:35;;;;;;;3.15;1.40;;;5.80;99.90;;;4.86;100.00;100183.16;4151168;28;20062;-75
2023/03/11 03:05:36;;;;;;;1.45;1.10;;;5.80;99.90;;;4.83;100.00;100187.81;4151364;28;20393;-75
2023/03/11 03:07:38;;;;;;;2.17;1.30;;;5.80;99.90;;;4.85;100.00;100191.13;4150623;28;20038;-75
2023/03/11 03:09:39;;;;;;;2.17;1.40;;;5.80;99.90;;;4.87;100.00;100194.41;4151248;28;20029;-76
2023/03/11 03:11:40;;;;;;;1.70;1.40;;;5.90;99.90;;;4.85;100.00;100185.88;4167462;28;20393;-75
2023/03/11 03:13:40;;;;;;;2.97;1.17;;;5.90;99.90;;;4.86;100.00;100195.41;4150738;28;20065;-75
2023/03/11 03:15:41;;;;;;;2.00;1.20;;;5.90;99.90;;;4.91;100.00;100206.25;4151225;28;20034;-76
2023/03/11 03:17:43;;;;;;;1.40;1.00;;;5.90;99.90;;;4.88;100.00;100198.69;4140439;28;20064;-75
2023/03/11 03:19:44;;;;;;;1.20;1.10;;;5.90;99.90;;;4.86;100.00;100182.31;4149317;28;20129;-76
2023/03/11 03:21:45;;;;;;;1.42;1.10;;;5.90;99.90;;;4.89;100.00;100200.34;4139484;28;20061;-75
2023/03/11 03:23:46;;;;;;;1.45;1.27;;;5.90;99.90;;;4.87;100.00;100189.19;4167517;28;20507;-75
2023/03/11 03:25:46;;;;;;;1.45;1.15;;;5.90;99.90;;;4.91;100.00;100206.25;4152195;28;20037;-75
2023/03/11 03:27:48;;;;;;;1.80;1.20;;;5.90;99.90;;;4.90;100.00;100202.00;4151884;28;20050;-76
2023/03/11 03:29:49;;;;;;;1.50;1.13;;;5.90;99.90;;;4.97;100.00;100201.34;4151050;28;20033;-76
2023/03/11 03:31:50;;;;;;;1.58;1.30;;;5.90;99.90;;;4.97;100.00;100196.09;4167420;28;20026;-76
2023/03/11 03:33:50;;;;;;;1.73;1.30;;;5.90;99.90;;;4.94;100.00;100196.38;4152208;28;20164;-76
2023/03/11 03:35:51;;;;;;;2.22;1.40;;;5.90;99.90;;;4.93;100.00;100206.94;4152132;28;20393;-75
2023/03/11 03:37:53;;;;;;;2.10;1.38;;;5.90;99.90;;;4.94;100.00;100206.00;4152252;28;20026;-75
2023/03/11 03:39:54;;;;;;;1.85;1.13;;;5.90;99.90;;;4.89;100.00;100213.41;4151327;28;20608;-75
2023/03/11 03:41:55;;;;;;;1.55;1.30;;;5.90;99.90;;;4.95;100.00;100210.28;4152668;28;20026;-75
2023/03/11 03:43:57;;;;;;;1.67;1.25;;;5.90;99.90;;;4.93;100.00;100213.00;4153647;28;20493;-75
2023/03/11 03:46:02;;;;;;;1.70;1.15;;;5.90;99.90;;;4.87;100.00;100207.47;4155487;28;20095;-75
2023/03/11 03:48:03;;;;;;;1.73;1.10;;;5.90;99.90;;;4.87;100.00;100215.31;4138277;28;20026;-75
2023/03/11 03:50:09;;;;;;;1.60;1.10;;;5.90;99.90;;;4.86;100.00;100217.13;4170343;28;20033;-75
2023/03/11 03:52:10;;;;;;;1.75;1.55;;;5.90;99.90;;;4.88;100.00;100216.97;4169667;28;20025;-76
2023/03/11 03:54:11;;;;;;;2.08;1.73;;;5.90;99.90;;;4.87;100.00;100216.16;4153964;28;20034;-75
2023/03/11 03:56:16;;;;;;;1.70;1.30;;;5.90;99.90;;;4.90;100.00;100231.56;4161991;28;20033;-76
2023/03/11 03:58:17;;;;;;;1.33;1.05;;;5.90;99.90;;;4.92;100.00;100234.06;4138950;28;20034;-75
2023/03/11 04:00:18;;;;;;;1.60;1.30;;;5.90;99.90;;;4.92;100.00;100239.28;4154991;28;20030;-75
2023/03/11 04:02:19;;;;;;;1.58;1.35;;;5.90;99.90;;;4.97;100.00;100243.16;4153909;28;20026;-75
2023/03/11 04:04:20;;;;;;;4.28;1.40;;;5.90;99.90;;;4.96;100.00;100243.28;4155217;28;20029;-75
2023/03/11 04:06:26;;;;;;;1.90;1.30;;;5.90;99.90;;;4.95;100.00;100250.31;4153970;28;20030;-75
2023/03/11 04:08:26;;;;;;;1.92;1.58;;;5.90;99.90;;;4.95;100.00;100246.88;4152489;28;20018;-75
2023/03/11 04:10:27;;;;;;;2.47;1.77;;;5.90;99.90;;;5.01;100.00;100249.78;4154025;28;20112;-75
2023/03/11 04:12:28;;;;;;;3.65;1.90;;;6.00;99.90;;;4.99;100.00;100235.16;4153448;28;20030;-75
2023/03/11 04:14:29;;;;;;;2.55;1.70;;;6.00;99.90;;;4.98;100.00;100254.44;4154636;28;20053;-75
2023/03/11 04:16:30;;;;;;;5.72;1.85;;;5.90;99.90;;;4.96;100.00;100246.72;4153683;28;20025;-75
2023/03/11 04:18:31;;;;;;;2.13;1.52;;;6.00;99.90;;;4.95;100.00;100249.47;4141430;28;20042;-75
2023/03/11 04:20:32;;;;;;;1.98;1.40;;;6.00;99.90;;;4.89;100.00;100256.06;4153595;28;20553;-75
2023/03/11 04:22:34;;;;;;;1.67;1.45;;;5.90;99.90;;;4.89;100.00;100281.38;4164316;28;20033;-75
2023/03/11 04:24:35;;;;;;;1.83;1.60;;;5.90;99.90;;;4.79;100.00;100280.47;4153497;28;20037;-75
2023/03/11 04:26:36;;;;;;;3.42;1.88;;;5.90;99.90;;;4.86;100.00;100268.56;4153259;28;20066;-75
2023/03/11 04:28:36;;;;;;;2.10;1.70;;;5.90;99.90;;;4.84;100.00;100267.84;4160462;28;20531;-75
2023/03/11 04:30:38;;;;;;;2.10;1.50;;;5.80;99.90;;;4.85;100.00;100277.34;4154753;28;20030;-75
2023/03/11 04:32:39;;;;;;;1.88;1.60;;;5.80;99.90;;;4.81;100.00;100270.72;4154509;28;20425;-75
2023/03/11 04:34:40;;;;;;;2.30;1.70;;;5.80;99.90;;;4.77;100.00;100278.00;4153495;28;20040;-75
2023/03/11 04:36:41;;;;;;;1.90;1.58;;;5.80;99.90;;;4.79;100.00;100270.03;4153449;28;20025;-76
2023/03/11 04:38:42;;;;;;;1.70;1.40;;;5.80;99.90;;;4.81;100.00;100268.94;4153425;28;20041;-75
2023/03/11 04:40:43;;;;;;;1.50;1.20;;;5.80;99.90;;;4.85;100.00;100264.28;4151744;28;20049;-76
2023/03/11 04:42:44;;;;;;;1.55;1.20;;;5.80;99.90;;;4.85;100.00;100261.66;4154583;28;20091;-75
2023/03/11 04:44:45;;;;;;;1.88;1.30;;;5.80;99.90;;;4.80;100.00;100261.25;4154393;28;20033;-75
2023/03/11 04:46:46;;;;;;;2.40;1.30;;;5.80;99.90;;;4.80;100.00;100256.03;4151478;28;20029;-75
2023/03/11 04:48:47;;;;;;;1.80;1.30;;;5.80;99.90;;;4.78;100.00;100250.91;4153052;28;20026;-75
2023/03/11 04:50:48;;;;;;;1.40;1.15;;;5.80;99.90;;;4.78;100.00;100245.69;4156354;28;20040;-75
2023/03/11 04:52:49;;;;;;;1.70;1.10;;;5.80;99.90;;;4.75;100.00;100250.38;4135670;28;20077;-75
2023/03/11 04:54:49;;;;;;;2.67;1.25;;;5.80;99.90;;;4.79;100.00;100259.56;4169481;28;20037;-75
2023/03/11 04:56:50;;;;;;;2.08;1.17;;;5.80;99.90;;;4.77;100.00;100257.13;4154272;28;20370;-75
2023/03/11 04:58:51;;;;;;;1.70;1.30;;;5.80;99.90;;;4.85;100.00;100254.66;4152964;28;20128;-76
2023/03/11 05:00:53;;;;;;;1.42;1.10;;;5.80;99.90;;;4.83;100.00;100256.59;4169391;28;20018;-75
2023/03/11 05:02:53;;;;;;;1.55;1.10;;;5.80;99.90;;;4.80;100.00;100262.06;4154280;28;20104;-75
2023/03/11 05:04:54;;;;;;;1.67;1.30;;;5.80;99.90;;;4.83;100.00;100268.81;4154217;28;20401;-75
2023/03/11 05:06:55;;;;;;;2.10;1.40;;;5.80;99.90;;;4.79;100.00;100249.13;4151580;28;20034;-75
2023/03/11 05:08:57;;;;;;;1.50;1.15;;;5.80;99.90;;;4.88;100.00;100257.00;4142770;28;20099;-75
2023/03/11 05:10:58;;;;;;;1.80;1.33;;;5.80;99.90;;;4.81;100.00;100236.75;4147104;28;20108;-75
2023/03/11 05:12:59;;;;;;;1.80;1.20;;;5.80;99.90;;;4.85;100.00;100244.22;4152393;28;20440;-75
2023/03/11 05:15:00;;;;;;;1.60;1.10;;;5.80;99.90;;;4.82;100.00;100254.94;4168931;28;20025;-75
2023/03/11 05:17:01;;;;;;;2.00;1.27;;;5.90;99.90;;;4.85;100.00;100259.06;4152919;28;20029;-75
2023/03/11 05:19:29;;;;;;;1.80;1.30;;;5.80;99.90;;;4.85;100.00;100261.66;4144103;28;20022;-75
2023/03/11 05:21:23;;;;;;;1.90;1.40;;;5.80;99.90;;;4.91;100.00;100259.38;4151513;28;20049;-75
2023/03/11 05:23:24;;;;;;;1.77;1.30;;;5.80;99.90;;;4.85;100.00;100259.06;4154043;28;20030;-75
2023/03/11 05:25:25;;;;;;;3.70;1.52;;;5.80;99.90;;;4.85;100.00;100279.97;4152886;28;20026;-75
2023/03/11 05:27:26;;;;;;;1.75;1.13;;;5.80;99.90;;;4.81;100.00;100304.69;4147184;28;20034;-75
2023/03/11 05:29:27;;;;;;;1.55;1.13;;;5.80;99.90;;;4.84;100.00;100278.28;4152608;28;20030;-75
2023/03/11 05:31:27;;;;;;;2.00;1.45;;;5.80;99.90;;;4.92;100.00;100273.25;4153800;28;20030;-75
2023/03/11 05:33:34;;;;;;;1.98;1.65;;;5.80;99.90;;;4.91;100.00;100282.06;4136327;28;20030;-75
2023/03/11 05:35:35;;;;;;;1.85;1.38;;;5.80;99.90;;;4.84;100.00;100273.06;4150089;28;20042;-75
2023/03/11 05:37:38;;;;;;;1.80;1.30;;;5.80;99.90;;;4.86;100.00;100279.00;4153507;28;20033;-75
2023/03/11 05:39:39;;;;;;;2.28;1.60;;;5.80;99.90;;;4.88;100.00;100279.69;4152495;28;20021;-75
2023/03/11 05:41:40;;;;;;;3.45;1.60;;;5.80;99.90;;;4.86;100.00;100299.91;4152307;28;20090;-75
2023/03/11 05:43:41;;;;;;;2.67;1.83;;;5.90;99.90;;;4.92;100.00;100308.06;4168429;28;20112;-75
2023/03/11 05:45:42;;;;;;;2.40;1.80;;;5.90;99.90;;;4.86;100.00;100299.91;4153652;28;20041;-75
2023/03/11 05:47:43;;;;;;;3.15;1.50;;;5.90;99.90;;;4.92;100.00;100312.47;4153630;28;20401;-75
2023/03/11 05:49:46;;;;;;;3.88;1.45;;;5.90;99.90;;;4.83;100.00;100302.78;4153594;28;20076;-75
2023/03/11 05:51:48;;;;;;;2.03;1.63;;;5.90;99.90;;;4.89;100.00;100310.13;4152387;28;20460;-75
2023/03/11 05:53:49;;;;;;;1.80;1.40;;;5.90;99.90;;;4.87;100.00;100310.22;4153128;28;20091;-75
2023/03/11 05:55:58;;;;;;;1.98;1.30;;;5.90;99.90;;;4.87;100.00;100304.16;4147123;28;20486;-75
2023/03/11 05:57:58;;;;;;;2.40;1.70;;;5.90;99.90;;;4.89;100.00;100302.28;4153410;28;20045;-75
2023/03/11 05:59:59;;;;;;;1.90;1.60;;;5.90;99.90;;;4.96;100.00;100300.78;4147973;28;20030;-75
2023/03/11 06:02:01;;;;;;;2.72;1.80;;;5.90;99.90;;;4.93;100.00;100314.09;4153278;28;20486;-75
2023/03/11 06:04:03;;;;;;;2.63;1.92;;;5.90;99.90;;;4.95;100.00;100314.81;4152224;28;20022;-76
2023/03/11 06:06:06;;;;;;;1.88;1.42;;;6.00;99.90;;;4.97;100.00;100305.88;4151244;28;20022;-75
2023/03/11 06:08:07;;;;;;;1.60;1.30;;;6.00;99.90;;;4.98;100.00;100301.50;4141716;28;20027;-75
2023/03/11 06:10:09;;;;;;;2.10;1.70;;;6.00;99.90;;;4.97;100.00;100278.91;4152458;28;20030;-75
2023/03/11 06:12:10;;;;;;;2.67;2.17;;;6.00;99.90;;;5.00;100.00;100278.66;4151780;28;20108;-75
2023/03/11 06:14:13;;;;;;;2.13;1.67;;;6.00;99.90;;;4.99;100.00;100279.59;4152766;28;20042;-75
2023/03/11 06:16:14;;;;;;;2.40;1.80;;;6.00;99.90;;;5.03;100.00;100288.84;4151917;28;20391;-75
2023/03/11 06:18:14;;;;;;;3.65;2.00;;;6.00;99.90;;;5.05;100.00;100286.91;4141503;28;20080;-75
2023/03/11 06:20:16;;;;;;;3.70;2.22;;;6.00;99.90;;;5.07;100.00;100279.78;4153032;28;20520;-76
2023/03/11 06:22:16;;;;;;;2.50;1.80;;;6.00;99.90;;;5.10;100.00;100276.91;4153028;28;20080;-75
2023/03/11 06:24:18;;;;;;;2.00;1.65;;;6.10;99.90;;;5.09;100.00;100272.63;4151798;28;20073;-75
2023/03/11 06:26:21;;;;;;;4.32;1.90;;;6.10;99.90;;;5.15;100.00;100285.19;4135318;28;20026;-75
2023/03/11 06:28:22;;;;;;;1.95;1.55;;;6.10;99.90;;;5.10;100.00;100279.53;4164707;28;20030;-75
2023/03/11 06:30:24;;;;;;;1.90;1.60;;;6.10;99.90;;;5.16;100.00;100304.31;4151733;28;20026;-75
2023/03/11 06:32:25;;;;;;;2.90;1.60;;;6.10;99.90;;;5.14;100.00;100301.00;4151496;28;20045;-75
2023/03/11 06:34:25;;;;;;;2.75;1.88;;;6.10;99.90;;;5.18;100.00;100300.59;4136752;28;20018;-75
2023/03/11 06:36:26;;;;;;;2.40;1.92;;;6.10;99.90;;;5.17;100.00;100290.28;4140091;28;20025;-75
2023/03/11 06:38:27;;;;;;;2.33;2.00;;;6.20;99.90;;;5.24;100.00;100301.84;4165321;28;20107;-75
2023/03/11 06:40:28;;;;;;;2.45;2.20;;;6.20;99.90;;;5.24;100.00;100294.84;4152728;28;20033;-76
2023/03/11 06:42:29;;;;;;;2.60;1.95;;;6.20;99.90;;;5.24;100.00;100292.22;4151599;28;20018;-75
2023/03/11 06:44:30;;;;;;;2.20;1.88;;;6.20;99.90;;;5.23;100.00;100298.41;4152897;28;20057;-75
2023/03/11 06:46:31;;;;;;;2.40;1.90;;;6.20;99.90;;;5.26;100.00;100290.28;4144595;28;20478;-75
2023/03/11 06:48:31;;;;;;;2.05;1.60;;;6.20;99.90;;;5.25;100.00;100288.66;4152597;28;20025;-76
2023/03/11 06:50:32;;;;;;;2.33;1.90;;;6.30;99.90;;;5.26;100.00;100290.28;4152616;28;20088;-75
2023/03/11 06:52:34;;;;;;;2.53;1.77;;;6.30;99.90;;;5.25;100.00;100296.50;4152775;28;20025;-75
2023/03/11 06:54:35;;;;;;;2.45;1.20;;;6.30;99.90;;;5.29;100.00;100297.03;4167850;28;20029;-76
2023/03/11 06:56:36;;;;;;;2.10;1.73;;;6.30;99.90;;;5.37;100.00;100297.22;4152605;28;20029;-75
2023/03/11 06:58:39;;;;;;;2.00;1.20;;;6.30;99.90;;;5.41;100.00;100298.59;4152192;28;20030;-75
2023/03/11 07:00:40;;;;;;;1.83;1.27;;;6.40;99.90;;;5.47;100.00;100308.53;4151249;28;20085;-75
2023/03/11 07:02:41;;;;;;;2.15;1.52;;;6.40;99.90;;;5.51;100.00;100308.13;4152493;28;20273;-75
2023/03/11 07:04:42;;;;;;;2.08;1.50;;;6.50;99.90;;;5.47;100.00;100298.88;4151307;28;20026;-75
2023/03/11 07:06:43;;;;;;;2.50;2.08;;;6.50;99.90;;;5.54;100.00;100305.25;4147759;28;20019;-75
2023/03/11 07:08:48;;;;;;;2.40;2.13;;;6.50;99.90;;;5.60;100.00;100311.72;4139389;28;20536;-75
2023/03/11 07:11:07;;;;;;;2.38;1.70;;;6.50;99.90;;;5.62;100.00;100303.72;4152492;28;20494;-75
2023/03/11 07:13:08;;;;;;;2.03;1.42;;;6.60;99.90;;;5.64;100.00;100307.06;4150827;28;20157;-75
2023/03/11 07:15:09;;;;;;;2.17;1.83;;;6.60;99.90;;;5.66;100.00;100308.56;4152318;28;20401;-75
2023/03/11 07:17:10;;;;;;;2.67;1.75;;;6.60;99.90;;;5.66;100.00;100316.41;4149647;28;20061;-75
2023/03/11 07:19:12;;;;;;;2.00;1.80;;;6.60;99.90;;;5.68;100.00;100324.94;4152433;28;20038;-76
2023/03/11 07:21:17;;;;;;;2.75;1.60;;;6.70;99.90;;;5.69;100.00;100331.03;4152207;28;20041;-76
2023/03/11 07:23:18;;;;;;;2.63;1.77;;;6.70;99.90;;;5.76;100.00;100335.59;4150931;28;20571;-75
2023/03/11 07:25:19;;;;;;;2.72;2.20;;;6.70;99.90;;;5.85;100.00;100339.19;4151379;28;20022;-75
2023/03/11 07:27:21;;;;;;;3.10;2.05;;;6.80;99.90;;;5.87;100.00;100335.50;4152069;28;20448;-76
2023/03/11 07:29:22;;;;;;;2.90;1.92;;;6.80;99.90;;;5.93;100.00;100336.75;4151174;28;20049;-75
2023/03/11 07:31:27;;;;;;;2.80;1.67;;;6.90;99.90;;;5.96;100.00;100336.47;4151928;28;20026;-75
2023/03/11 07:33:28;;;;;;;2.22;1.45;;;6.90;99.90;;;6.05;100.00;100340.88;4151344;28;20101;-75
2023/03/11 07:35:29;;;;;;;3.05;2.10;;;7.00;99.90;;;6.10;100.00;100344.75;4167223;28;20021;-75
2023/03/11 07:37:29;;;;;;;2.00;1.67;;;7.00;99.90;;;6.20;100.00;100344.75;4150868;28;20033;-76
2023/03/11 07:39:30;;;;;;;1.88;1.48;;;7.10;99.90;;;6.26;100.00;100335.50;4167359;28;20404;-75
2023/03/11 07:41:34;;;;;;;1.30;1.05;;;7.20;99.90;;;6.26;100.00;100341.59;4152205;28;20022;-75
2023/03/11 07:43:36;;;;;;;1.90;1.65;;;7.20;99.90;;;6.24;100.00;100335.66;4150765;28;20033;-75
2023/03/11 07:45:36;;;;;;;3.47;2.38;;;7.20;99.90;;;6.33;100.00;100349.72;4150570;28;20034;-75
2023/03/11 07:47:37;;;;;;;2.92;2.40;;;7.20;99.90;;;6.37;100.00;100356.31;4143511;28;20038;-75
2023/03/11 07:49:38;;;;;;;2.72;2.30;;;7.30;99.90;;;6.42;100.00;100359.38;4150803;28;20429;-75
2023/03/11 07:51:43;;;;;;;3.05;2.22;;;7.30;99.90;;;6.48;100.00;100349.13;4150715;28;20022;-75
2023/03/11 07:53:45;;;;;;;3.30;2.45;;;7.40;99.90;;;6.55;100.00;100360.72;4151652;28;20030;-75
2023/03/11 07:55:46;;;;;;;3.75;2.35;;;7.50;99.90;;;6.66;100.00;100365.81;4151081;28;20034;-75
2023/03/11 07:57:48;;;;;;;2.67;2.15;;;7.60;99.90;;;6.70;100.00;100353.25;4150473;28;20055;-76
2023/03/11 07:59:49;;;;;;;4.20;2.65;;;7.70;99.90;;;6.79;100.00;100367.31;4134558;28;20122;-76
2023/03/11 08:01:50;;;;;;;4.07;2.45;;;7.70;99.90;;;6.83;100.00;100369.53;4149759;28;20026;-75
2023/03/11 08:03:57;;;;;;;2.92;2.40;;;7.80;99.90;;;6.94;100.00;100381.63;4150453;28;20144;-75
2023/03/11 08:05:58;;;;;;;4.55;1.98;;;7.90;99.90;;;7.02;100.00;100382.56;4151020;28;20041;-76
2023/03/11 08:07:59;;;;;;;2.00;1.50;;;8.00;99.90;;;7.11;100.00;100389.59;4147897;28;20160;-76
2023/03/11 08:10:00;;;;;;;2.40;1.75;;;8.10;99.90;;;7.15;100.00;100390.97;4150569;28;20034;-76
2023/03/11 08:12:01;;;;;;;3.42;2.30;;;8.10;99.90;;;7.12;100.00;100385.19;4166847;28;20032;-75
2023/03/11 08:14:02;;;;;;;3.00;2.13;;;8.20;99.90;;;7.19;100.00;100391.50;4150728;28;20061;-76
2023/03/11 08:16:05;;;;;;;3.63;2.40;;;8.20;99.90;;;7.26;100.00;100381.28;4151902;28;20375;-76
2023/03/11 08:18:06;;;;;;;1.92;1.60;;;8.20;99.90;;;7.30;100.00;100382.63;4150505;28;20057;-76
2023/03/11 08:20:08;;;;;;;2.42;2.00;;;8.20;99.90;;;7.32;100.00;100375.47;4151918;28;20026;-75
2023/03/11 08:22:09;;;;;;;2.80;2.20;;;8.30;99.90;;;7.38;100.00;100374.88;4151893;28;20091;-76
2023/03/11 08:24:13;;;;;;;3.85;2.70;;;8.30;99.90;;;7.47;100.00;100376.63;4151817;28;20489;-76
2023/03/11 08:26:21;;;;;;;3.88;2.45;;;8.40;99.90;;;7.65;100.00;100380.13;4150450;28;20118;-76
2023/03/11 08:28:22;;;;;;;2.90;2.35;;;8.60;99.90;;;7.66;100.00;100380.00;4148028;28;20018;-75
2023/03/11 08:30:23;;;;;;;4.75;2.22;;;8.70;99.90;;;7.77;100.00;100392.91;4153118;28;20608;-77
2023/03/11 08:32:24;;;;;;;2.97;1.77;;;8.70;99.90;;;7.71;100.00;100390.88;4150671;28;20118;-76
2023/03/11 08:34:26;;;;;;;3.75;1.60;;;8.70;99.90;;;7.75;100.00;100383.53;4152704;28;20052;-76